Messwerte Aguascalientes

Temperatur

Temperatur
°C
1614391200 20.00 20.00 22
1614394800 21.00 21.00 20
1614398400 22.00 22.00 18
1614402000 23.00 23.00 18
1614405600 0.00 0.00 15
1614409200 1.00 1.00
1614412800 2.00 2.00
1614416400 3.00 3.00
1614420000 4.00 4.00
1614423600 5.00 5.00 10
1614427200 6.00 6.00 11
1614430800 7.00 7.00 9
1614434400 8.00 8.00 12
1614438000 9.00 9.00 15
1614441600 10.00 10.00 18
1614445200 11.00 11.00 20
1614448800 12.00 12.00 23
1614452400 13.00 13.00 25
1614456000 14.00 14.00 27
1614459600 15.00 15.00 28
1614463200 16.00 16.00
1614466800 17.00 17.00 29
1614470400 18.00 18.00 28
1614474000 19.00 19.00 25

Aktuellste Messwerte

Wettercharakter
Wetter: klar
Temperatur
22 °C
Feuchtigkeit
15 %
Wind
10 km/hWindrichtung: Südwest
Luftdruck
1020 hPa
Messzeit: 27. Februar 2021, 20.00Datenquelle: METAR

Weitere Messstationen in der Nähe

Messstation Temperatur Entfernung
Zacatecas - 121 km
San Luis Potosí 24 °C 140 km
Guanajuato 23 °C 143 km
Guadalajara 25 °C 174 km
Queretaro 21 °C 243 km
Morelia - 268 km
Tepic - 269 km

Wind

Windrichtung Böen Mittelwind
° km/h km/h
1614391200 20.00 19.00 - 20.00 180° 10
1614394800 21.00 20.00 - 21.00 240° 5
1614398400 22.00 21.00 - 22.00 80° 5
1614402000 23.00 22.00 - 23.00 90° 5
1614405600 0.00 23.00 - 0.00 70° 10
1614409200 1.00 0.00 - 1.00
1614412800 2.00 1.00 - 2.00
1614416400 3.00 2.00 - 3.00
1614420000 4.00 3.00 - 4.00
1614423600 5.00 4.00 - 5.00 350° 5
1614427200 6.00 5.00 - 6.00 350° 5
1614430800 7.00 6.00 - 7.00 0
1614434400 8.00 7.00 - 8.00 160° 5
1614438000 9.00 8.00 - 9.00 160° 10
1614441600 10.00 9.00 - 10.00 190° 10
1614445200 11.00 10.00 - 11.00 220° 10
1614448800 12.00 11.00 - 12.00 160° 5
1614452400 13.00 12.00 - 13.00 220° 25 5
1614456000 14.00 13.00 - 14.00 190° 30 10
1614459600 15.00 14.00 - 15.00 240° 15
1614463200 16.00 15.00 - 16.00
1614466800 17.00 16.00 - 17.00 230° 20
1614470400 18.00 17.00 - 18.00 210° 20
1614474000 19.00 18.00 - 19.00 220° 15

Ihre Wetterstation

Fehlt Ihre Wetterstation auf unserem Portal?

Schreiben Sie an network@meteonews.ch

Klima

Wann ist es am wärmsten? Wann regnet es am wenigsten? Unsere Klimadaten geben Auskunft.